Grimshaw, Canada
Current Conditions -  °F | °C
As of 12:00 AM on Saturday 29 Nov 2014 (Local Time) from CYPE Reporting Station
Clear Clear  
Wind Chill: -45°   Ceiling: Unl
Heat Index: -26°   Visibility: 15mi
Dew Point: -31°   Wind: 8mph
Humidity: 76%   Direction: 200°SSW
Pressure: 29.95"   Gusts: NA
Location:  56.18°N, 117.6°W
Report Text: CYPE 290700Z 20007KT 15SM SKC M32/M35 A2995 RMK SLP210
Loading
Personal Weather Stations






























Interactive Weather Map New forecast layout! Learn more

10-Day Weather Forecast

Advertisements
Track Severe Weather on mobile